sensor_id;sensor_type;location;lat;lon;timestamp;P1;durP1;ratioP1;P2;durP2;ratioP2
51122;SDS011;37162;41.724;13.346;2023-03-26T00:00:42;6.07;;;5.13;;
51122;SDS011;37162;41.724;13.346;2023-03-26T00:03:09;7.90;;;5.15;;
51122;SDS011;37162;41.724;13.346;2023-03-26T00:05:40;8.03;;;5.90;;
51122;SDS011;37162;41.724;13.346;2023-03-26T00:08:06;9.50;;;5.72;;
51122;SDS011;37162;41.724;13.346;2023-03-26T00:10:36;7.18;;;5.18;;
51122;SDS011;37162;41.724;13.346;2023-03-26T00:13:06;7.90;;;5.95;;
51122;SDS011;37162;41.724;13.346;2023-03-26T00:15:32;8.73;;;6.50;;
51122;SDS011;37162;41.724;13.346;2023-03-26T00:17:59;7.15;;;5.60;;
51122;SDS011;37162;41.724;13.346;2023-03-26T00:20:26;6.30;;;5.05;;
51122;SDS011;37162;41.724;13.346;2023-03-26T00:22:52;8.48;;;5.18;;
51122;SDS011;37162;41.724;13.346;2023-03-26T00:25:19;6.97;;;5.55;;
51122;SDS011;37162;41.724;13.346;2023-03-26T00:27:45;6.38;;;4.72;;
51122;SDS011;37162;41.724;13.346;2023-03-26T00:30:11;6.97;;;4.80;;
51122;SDS011;37162;41.724;13.346;2023-03-26T00:32:36;5.90;;;4.20;;
51122;SDS011;37162;41.724;13.346;2023-03-26T00:35:03;7.35;;;4.65;;
51122;SDS011;37162;41.724;13.346;2023-03-26T00:37:28;8.18;;;5.15;;
51122;SDS011;37162;41.724;13.346;2023-03-26T00:39:55;6.65;;;4.75;;
51122;SDS011;37162;41.724;13.346;2023-03-26T00:42:23;7.65;;;4.80;;
51122;SDS011;37162;41.724;13.346;2023-03-26T00:44:50;7.53;;;4.80;;
51122;SDS011;37162;41.724;13.346;2023-03-26T00:47:21;13.38;;;5.75;;
51122;SDS011;37162;41.724;13.346;2023-03-26T00:49:50;8.57;;;5.43;;
51122;SDS011;37162;41.724;13.346;2023-03-26T00:52:16;11.60;;;4.80;;
51122;SDS011;37162;41.724;13.346;2023-03-26T00:54:46;5.00;;;4.50;;
51122;SDS011;37162;41.724;13.346;2023-03-26T00:57:12;5.32;;;4.53;;
51122;SDS011;37162;41.724;13.346;2023-03-26T00:59:39;6.40;;;4.43;;
51122;SDS011;37162;41.724;13.346;2023-03-26T01:02:06;6.20;;;4.47;;
51122;SDS011;37162;41.724;13.346;2023-03-26T01:04:34;7.13;;;4.57;;
51122;SDS011;37162;41.724;13.346;2023-03-26T01:07:08;5.78;;;4.38;;
51122;SDS011;37162;41.724;13.346;2023-03-26T01:09:36;5.40;;;4.00;;
51122;SDS011;37162;41.724;13.346;2023-03-26T01:12:07;6.45;;;4.40;;
51122;SDS011;37162;41.724;13.346;2023-03-26T01:14:37;8.27;;;4.68;;
51122;SDS011;37162;41.724;13.346;2023-03-26T01:17:04;5.70;;;4.50;;
51122;SDS011;37162;41.724;13.346;2023-03-26T01:22:17;5.10;;;4.35;;
51122;SDS011;37162;41.724;13.346;2023-03-26T01:24:47;5.38;;;4.35;;
51122;SDS011;37162;41.724;13.346;2023-03-26T01:35:44;5.10;;;4.03;;
51122;SDS011;37162;41.724;13.346;2023-03-26T01:43:30;9.02;;;4.72;;
51122;SDS011;37162;41.724;13.346;2023-03-26T01:46:02;6.57;;;4.30;;
51122;SDS011;37162;41.724;13.346;2023-03-26T01:48:32;6.20;;;4.45;;
51122;SDS011;37162;41.724;13.346;2023-03-26T01:51:01;5.93;;;4.40;;
51122;SDS011;37162;41.724;13.346;2023-03-26T01:53:27;5.53;;;4.50;;
51122;SDS011;37162;41.724;13.346;2023-03-26T01:55:55;6.18;;;4.10;;
51122;SDS011;37162;41.724;13.346;2023-03-26T02:03:49;5.15;;;4.18;;
51122;SDS011;37162;41.724;13.346;2023-03-26T02:06:29;9.48;;;4.43;;
51122;SDS011;37162;41.724;13.346;2023-03-26T02:09:10;4.45;;;3.75;;
51122;SDS011;37162;41.724;13.346;2023-03-26T02:11:40;4.55;;;3.67;;
51122;SDS011;37162;41.724;13.346;2023-03-26T02:14:06;5.47;;;3.95;;
51122;SDS011;37162;41.724;13.346;2023-03-26T02:16:33;5.93;;;3.60;;
51122;SDS011;37162;41.724;13.346;2023-03-26T02:18:58;5.05;;;3.75;;
51122;SDS011;37162;41.724;13.346;2023-03-26T02:21:25;4.63;;;3.45;;
51122;SDS011;37162;41.724;13.346;2023-03-26T02:23:53;5.07;;;3.80;;
51122;SDS011;37162;41.724;13.346;2023-03-26T02:26:26;5.05;;;3.90;;
51122;SDS011;37162;41.724;13.346;2023-03-26T02:28:53;5.25;;;4.00;;
51122;SDS011;37162;41.724;13.346;2023-03-26T02:31:18;4.47;;;4.03;;
51122;SDS011;37162;41.724;13.346;2023-03-26T02:33:45;7.38;;;4.20;;
51122;SDS011;37162;41.724;13.346;2023-03-26T02:36:13;6.22;;;4.57;;
51122;SDS011;37162;41.724;13.346;2023-03-26T02:38:40;5.30;;;3.85;;
51122;SDS011;37162;41.724;13.346;2023-03-26T02:41:05;5.82;;;3.85;;
51122;SDS011;37162;41.724;13.346;2023-03-26T02:43:31;5.63;;;4.20;;
51122;SDS011;37162;41.724;13.346;2023-03-26T02:45:56;5.25;;;3.78;;
51122;SDS011;37162;41.724;13.346;2023-03-26T02:48:22;5.40;;;4.10;;
51122;SDS011;37162;41.724;13.346;2023-03-26T02:50:48;5.68;;;3.80;;
51122;SDS011;37162;41.724;13.346;2023-03-26T02:53:21;5.80;;;4.13;;
51122;SDS011;37162;41.724;13.346;2023-03-26T02:55:48;6.35;;;3.92;;
51122;SDS011;37162;41.724;13.346;2023-03-26T02:58:13;4.35;;;3.60;;
51122;SDS011;37162;41.724;13.346;2023-03-26T03:00:42;5.63;;;3.70;;
51122;SDS011;37162;41.724;13.346;2023-03-26T03:03:08;4.25;;;3.55;;
51122;SDS011;37162;41.724;13.346;2023-03-26T03:05:34;4.53;;;3.38;;
51122;SDS011;37162;41.724;13.346;2023-03-26T03:08:02;3.92;;;3.35;;
51122;SDS011;37162;41.724;13.346;2023-03-26T03:10:28;5.25;;;3.92;;
51122;SDS011;37162;41.724;13.346;2023-03-26T03:12:56;4.88;;;3.40;;
51122;SDS011;37162;41.724;13.346;2023-03-26T03:15:23;7.82;;;3.92;;
51122;SDS011;37162;41.724;13.346;2023-03-26T03:17:49;5.18;;;3.55;;
51122;SDS011;37162;41.724;13.346;2023-03-26T03:20:15;4.30;;;3.20;;
51122;SDS011;37162;41.724;13.346;2023-03-26T03:22:41;5.72;;;3.58;;
51122;SDS011;37162;41.724;13.346;2023-03-26T03:25:07;4.57;;;3.33;;
51122;SDS011;37162;41.724;13.346;2023-03-26T03:27:38;5.30;;;3.05;;
51122;SDS011;37162;41.724;13.346;2023-03-26T03:30:05;5.10;;;3.15;;
51122;SDS011;37162;41.724;13.346;2023-03-26T03:32:31;4.80;;;3.13;;
51122;SDS011;37162;41.724;13.346;2023-03-26T03:34:56;5.30;;;3.47;;
51122;SDS011;37162;41.724;13.346;2023-03-26T03:37:22;4.00;;;2.97;;
51122;SDS011;37162;41.724;13.346;2023-03-26T03:39:48;4.15;;;3.20;;
51122;SDS011;37162;41.724;13.346;2023-03-26T03:42:14;4.65;;;2.95;;
51122;SDS011;37162;41.724;13.346;2023-03-26T03:44:39;4.65;;;3.13;;
51122;SDS011;37162;41.724;13.346;2023-03-26T03:47:04;5.40;;;3.13;;
51122;SDS011;37162;41.724;13.346;2023-03-26T03:49:31;3.80;;;3.03;;
51122;SDS011;37162;41.724;13.346;2023-03-26T03:51:56;3.75;;;3.10;;
51122;SDS011;37162;41.724;13.346;2023-03-26T03:54:22;3.67;;;3.30;;
51122;SDS011;37162;41.724;13.346;2023-03-26T03:56:48;4.18;;;2.85;;
51122;SDS011;37162;41.724;13.346;2023-03-26T03:59:14;4.47;;;3.00;;
51122;SDS011;37162;41.724;13.346;2023-03-26T04:01:39;4.85;;;2.80;;
51122;SDS011;37162;41.724;13.346;2023-03-26T04:04:07;3.80;;;2.70;;
51122;SDS011;37162;41.724;13.346;2023-03-26T04:06:33;4.15;;;2.97;;
51122;SDS011;37162;41.724;13.346;2023-03-26T04:08:58;5.40;;;2.92;;
51122;SDS011;37162;41.724;13.346;2023-03-26T04:11:24;3.60;;;2.63;;
51122;SDS011;37162;41.724;13.346;2023-03-26T04:13:49;4.65;;;3.00;;
51122;SDS011;37162;41.724;13.346;2023-03-26T04:16:15;4.80;;;2.78;;
51122;SDS011;37162;41.724;13.346;2023-03-26T04:18:41;4.00;;;2.95;;
51122;SDS011;37162;41.724;13.346;2023-03-26T04:21:09;4.68;;;2.80;;
51122;SDS011;37162;41.724;13.346;2023-03-26T04:23:36;7.25;;;3.03;;
51122;SDS011;37162;41.724;13.346;2023-03-26T04:26:04;5.05;;;2.90;;
51122;SDS011;37162;41.724;13.346;2023-03-26T04:31:11;4.10;;;3.17;;
51122;SDS011;37162;41.724;13.346;2023-03-26T04:33:40;3.75;;;2.70;;
51122;SDS011;37162;41.724;13.346;2023-03-26T04:36:10;4.35;;;2.97;;
51122;SDS011;37162;41.724;13.346;2023-03-26T04:38:39;3.88;;;2.83;;
51122;SDS011;37162;41.724;13.346;2023-03-26T04:41:10;2.83;;;2.60;;
51122;SDS011;37162;41.724;13.346;2023-03-26T04:43:36;3.15;;;2.85;;
51122;SDS011;37162;41.724;13.346;2023-03-26T04:46:11;4.40;;;3.00;;
51122;SDS011;37162;41.724;13.346;2023-03-26T04:48:42;4.40;;;2.38;;
51122;SDS011;37162;41.724;13.346;2023-03-26T04:51:08;3.75;;;2.90;;
51122;SDS011;37162;41.724;13.346;2023-03-26T04:54:03;3.00;;;2.42;;
51122;SDS011;37162;41.724;13.346;2023-03-26T04:59:31;2.65;;;2.33;;
51122;SDS011;37162;41.724;13.346;2023-03-26T05:02:03;4.68;;;2.95;;
51122;SDS011;37162;41.724;13.346;2023-03-26T05:04:30;6.43;;;2.92;;
51122;SDS011;37162;41.724;13.346;2023-03-26T05:06:57;3.85;;;2.95;;
51122;SDS011;37162;41.724;13.346;2023-03-26T05:09:23;5.60;;;2.70;;
51122;SDS011;37162;41.724;13.346;2023-03-26T05:11:50;4.70;;;3.38;;
51122;SDS011;37162;41.724;13.346;2023-03-26T05:14:16;5.47;;;3.10;;
51122;SDS011;37162;41.724;13.346;2023-03-26T05:16:42;5.38;;;3.03;;
51122;SDS011;37162;41.724;13.346;2023-03-26T05:19:09;5.57;;;3.20;;
51122;SDS011;37162;41.724;13.346;2023-03-26T05:21:34;7.00;;;3.15;;
51122;SDS011;37162;41.724;13.346;2023-03-26T05:24:00;4.75;;;3.13;;
51122;SDS011;37162;41.724;13.346;2023-03-26T05:26:26;4.40;;;3.00;;
51122;SDS011;37162;41.724;13.346;2023-03-26T05:28:53;4.32;;;2.90;;
51122;SDS011;37162;41.724;13.346;2023-03-26T05:31:19;4.82;;;3.33;;
51122;SDS011;37162;41.724;13.346;2023-03-26T05:33:45;5.15;;;3.10;;
51122;SDS011;37162;41.724;13.346;2023-03-26T05:36:11;3.88;;;2.83;;
51122;SDS011;37162;41.724;13.346;2023-03-26T05:38:39;4.45;;;3.15;;
51122;SDS011;37162;41.724;13.346;2023-03-26T05:41:06;4.82;;;3.55;;
51122;SDS011;37162;41.724;13.346;2023-03-26T05:43:32;6.95;;;4.00;;
51122;SDS011;37162;41.724;13.346;2023-03-26T05:45:58;6.90;;;3.88;;
51122;SDS011;37162;41.724;13.346;2023-03-26T05:48:24;5.00;;;3.45;;
51122;SDS011;37162;41.724;13.346;2023-03-26T05:50:51;5.07;;;3.30;;
51122;SDS011;37162;41.724;13.346;2023-03-26T05:53:18;6.00;;;3.00;;
51122;SDS011;37162;41.724;13.346;2023-03-26T05:55:45;3.95;;;3.55;;
51122;SDS011;37162;41.724;13.346;2023-03-26T05:58:22;4.82;;;3.15;;
51122;SDS011;37162;41.724;13.346;2023-03-26T06:00:58;5.10;;;3.30;;
51122;SDS011;37162;41.724;13.346;2023-03-26T06:03:27;4.47;;;3.38;;
51122;SDS011;37162;41.724;13.346;2023-03-26T06:05:52;4.93;;;3.40;;
51122;SDS011;37162;41.724;13.346;2023-03-26T06:08:18;4.47;;;3.08;;
51122;SDS011;37162;41.724;13.346;2023-03-26T06:10:44;4.88;;;3.42;;
51122;SDS011;37162;41.724;13.346;2023-03-26T06:13:10;5.50;;;3.42;;
51122;SDS011;37162;41.724;13.346;2023-03-26T06:15:36;4.57;;;3.25;;
51122;SDS011;37162;41.724;13.346;2023-03-26T06:18:01;5.25;;;3.40;;
51122;SDS011;37162;41.724;13.346;2023-03-26T06:20:26;4.75;;;3.60;;
51122;SDS011;37162;41.724;13.346;2023-03-26T06:22:52;5.05;;;3.38;;
51122;SDS011;37162;41.724;13.346;2023-03-26T06:25:17;8.73;;;3.83;;
51122;SDS011;37162;41.724;13.346;2023-03-26T06:27:43;6.53;;;3.38;;
51122;SDS011;37162;41.724;13.346;2023-03-26T06:30:09;5.68;;;3.70;;
51122;SDS011;37162;41.724;13.346;2023-03-26T06:32:38;5.18;;;4.00;;
51122;SDS011;37162;41.724;13.346;2023-03-26T06:35:07;7.57;;;4.00;;
51122;SDS011;37162;41.724;13.346;2023-03-26T06:37:33;4.00;;;3.58;;
51122;SDS011;37162;41.724;13.346;2023-03-26T06:39:58;5.90;;;3.30;;
51122;SDS011;37162;41.724;13.346;2023-03-26T06:42:23;7.63;;;3.67;;
51122;SDS011;37162;41.724;13.346;2023-03-26T06:44:49;6.20;;;4.43;;
51122;SDS011;37162;41.724;13.346;2023-03-26T06:47:14;5.50;;;3.78;;
51122;SDS011;37162;41.724;13.346;2023-03-26T06:49:40;6.78;;;4.00;;
51122;SDS011;37162;41.724;13.346;2023-03-26T06:52:06;5.47;;;4.00;;
51122;SDS011;37162;41.724;13.346;2023-03-26T06:54:31;4.80;;;3.88;;
51122;SDS011;37162;41.724;13.346;2023-03-26T06:56:56;4.80;;;3.75;;
51122;SDS011;37162;41.724;13.346;2023-03-26T06:59:23;5.07;;;3.55;;
51122;SDS011;37162;41.724;13.346;2023-03-26T07:01:49;5.05;;;3.47;;
51122;SDS011;37162;41.724;13.346;2023-03-26T07:04:14;5.95;;;4.05;;
51122;SDS011;37162;41.724;13.346;2023-03-26T07:06:40;4.63;;;3.67;;
51122;SDS011;37162;41.724;13.346;2023-03-26T07:09:05;9.75;;;4.35;;
51122;SDS011;37162;41.724;13.346;2023-03-26T07:11:31;6.97;;;4.88;;
51122;SDS011;37162;41.724;13.346;2023-03-26T07:13:56;5.53;;;4.13;;
51122;SDS011;37162;41.724;13.346;2023-03-26T07:16:23;6.07;;;4.47;;
51122;SDS011;37162;41.724;13.346;2023-03-26T07:18:49;5.45;;;3.88;;
51122;SDS011;37162;41.724;13.346;2023-03-26T07:21:15;6.53;;;4.32;;
51122;SDS011;37162;41.724;13.346;2023-03-26T07:23:41;6.03;;;4.28;;
51122;SDS011;37162;41.724;13.346;2023-03-26T07:29:06;4.72;;;3.95;;
51122;SDS011;37162;41.724;13.346;2023-03-26T07:31:41;4.82;;;4.13;;
51122;SDS011;37162;41.724;13.346;2023-03-26T07:47:47;21.73;;;11.18;;
51122;SDS011;37162;41.724;13.346;2023-03-26T07:50:16;19.05;;;9.32;;
51122;SDS011;37162;41.724;13.346;2023-03-26T07:52:44;10.95;;;7.60;;
51122;SDS011;37162;41.724;13.346;2023-03-26T07:55:13;11.32;;;7.28;;
51122;SDS011;37162;41.724;13.346;2023-03-26T08:00:22;20.42;;;8.23;;
51122;SDS011;37162;41.724;13.346;2023-03-26T08:22:22;10.18;;;6.18;;
51122;SDS011;37162;41.724;13.346;2023-03-26T08:30:28;8.38;;;5.88;;
51122;SDS011;37162;41.724;13.346;2023-03-26T08:32:58;11.93;;;6.75;;
51122;SDS011;37162;41.724;13.346;2023-03-26T08:35:28;10.15;;;6.72;;
51122;SDS011;37162;41.724;13.346;2023-03-26T08:37:54;13.55;;;7.75;;
51122;SDS011;37162;41.724;13.346;2023-03-26T08:48:54;13.10;;;6.85;;
51122;SDS011;37162;41.724;13.346;2023-03-26T09:07:59;9.30;;;5.72;;
51122;SDS011;37162;41.724;13.346;2023-03-26T09:28:33;6.57;;;5.30;;
51122;SDS011;37162;41.724;13.346;2023-03-26T10:13:24;6.43;;;4.30;;
51122;SDS011;37162;41.724;13.346;2023-03-26T10:18:35;6.10;;;4.30;;
51122;SDS011;37162;41.724;13.346;2023-03-26T10:21:06;7.22;;;4.63;;
51122;SDS011;37162;41.724;13.346;2023-03-26T10:26:20;7.93;;;4.15;;
51122;SDS011;37162;41.724;13.346;2023-03-26T10:32:05;5.90;;;4.03;;
51122;SDS011;37162;41.724;13.346;2023-03-26T10:37:55;5.50;;;4.07;;
51122;SDS011;37162;41.724;13.346;2023-03-26T10:52:06;5.32;;;4.00;;
51122;SDS011;37162;41.724;13.346;2023-03-26T10:57:44;8.95;;;3.90;;
51122;SDS011;37162;41.724;13.346;2023-03-26T11:00:19;4.72;;;3.22;;
51122;SDS011;37162;41.724;13.346;2023-03-26T11:11:54;5.32;;;3.15;;
51122;SDS011;37162;41.724;13.346;2023-03-26T11:30:04;10.55;;;3.80;;
51122;SDS011;37162;41.724;13.346;2023-03-26T11:32:41;9.88;;;3.85;;
51122;SDS011;37162;41.724;13.346;2023-03-26T11:37:47;8.05;;;3.40;;
51122;SDS011;37162;41.724;13.346;2023-03-26T11:40:19;5.33;;;2.87;;
51122;SDS011;37162;41.724;13.346;2023-03-26T11:42:50;9.18;;;3.28;;
51122;SDS011;37162;41.724;13.346;2023-03-26T11:45:21;8.07;;;3.13;;
51122;SDS011;37162;41.724;13.346;2023-03-26T11:47:55;6.95;;;4.30;;
51122;SDS011;37162;41.724;13.346;2023-03-26T11:50:28;5.45;;;3.17;;
51122;SDS011;37162;41.724;13.346;2023-03-26T11:53:18;7.38;;;4.25;;
51122;SDS011;37162;41.724;13.346;2023-03-26T11:55:46;5.22;;;3.15;;
51122;SDS011;37162;41.724;13.346;2023-03-26T11:58:24;5.00;;;3.08;;
51122;SDS011;37162;41.724;13.346;2023-03-26T12:00:55;5.72;;;2.92;;
51122;SDS011;37162;41.724;13.346;2023-03-26T12:03:21;4.05;;;3.25;;
51122;SDS011;37162;41.724;13.346;2023-03-26T12:05:50;5.95;;;2.85;;
51122;SDS011;37162;41.724;13.346;2023-03-26T12:08:37;8.00;;;3.72;;
51122;SDS011;37162;41.724;13.346;2023-03-26T12:11:05;5.80;;;3.25;;
51122;SDS011;37162;41.724;13.346;2023-03-26T12:16:10;4.53;;;2.78;;
51122;SDS011;37162;41.724;13.346;2023-03-26T12:18:41;7.00;;;2.90;;
51122;SDS011;37162;41.724;13.346;2023-03-26T12:23:49;6.50;;;3.28;;
51122;SDS011;37162;41.724;13.346;2023-03-26T12:26:39;4.53;;;2.97;;
51122;SDS011;37162;41.724;13.346;2023-03-26T12:29:28;7.72;;;3.28;;
51122;SDS011;37162;41.724;13.346;2023-03-26T12:34:39;4.55;;;2.97;;
51122;SDS011;37162;41.724;13.346;2023-03-26T12:37:06;6.30;;;2.92;;
51122;SDS011;37162;41.724;13.346;2023-03-26T12:39:40;3.85;;;2.95;;
51122;SDS011;37162;41.724;13.346;2023-03-26T12:42:24;2.92;;;2.50;;
51122;SDS011;37162;41.724;13.346;2023-03-26T12:44:52;5.28;;;2.95;;
51122;SDS011;37162;41.724;13.346;2023-03-26T12:47:22;4.55;;;3.30;;
51122;SDS011;37162;41.724;13.346;2023-03-26T12:49:49;3.47;;;2.65;;
51122;SDS011;37162;41.724;13.346;2023-03-26T12:58:18;3.83;;;2.58;;
51122;SDS011;37162;41.724;13.346;2023-03-26T13:00:54;4.75;;;2.72;;
51122;SDS011;37162;41.724;13.346;2023-03-26T13:06:29;5.43;;;2.55;;
51122;SDS011;37162;41.724;13.346;2023-03-26T13:20:23;7.40;;;3.13;;
51122;SDS011;37162;41.724;13.346;2023-03-26T13:25:47;5.88;;;2.47;;
51122;SDS011;37162;41.724;13.346;2023-03-26T13:31:07;6.10;;;2.80;;
51122;SDS011;37162;41.724;13.346;2023-03-26T13:39:13;9.13;;;3.15;;
51122;SDS011;37162;41.724;13.346;2023-03-26T13:47:10;9.40;;;2.90;;
51122;SDS011;37162;41.724;13.346;2023-03-26T13:52:43;4.60;;;2.40;;
51122;SDS011;37162;41.724;13.346;2023-03-26T13:57:50;11.32;;;2.90;;
51122;SDS011;37162;41.724;13.346;2023-03-26T14:00:20;4.63;;;2.70;;
51122;SDS011;37162;41.724;13.346;2023-03-26T14:03:00;5.38;;;2.55;;
51122;SDS011;37162;41.724;13.346;2023-03-26T14:05:38;6.20;;;2.25;;
51122;SDS011;37162;41.724;13.346;2023-03-26T14:08:11;3.08;;;2.03;;
51122;SDS011;37162;41.724;13.346;2023-03-26T14:10:45;4.10;;;2.50;;
51122;SDS011;37162;41.724;13.346;2023-03-26T14:13:17;3.17;;;2.20;;
51122;SDS011;37162;41.724;13.346;2023-03-26T14:15:48;3.88;;;2.35;;
51122;SDS011;37162;41.724;13.346;2023-03-26T14:18:23;4.82;;;2.47;;
51122;SDS011;37162;41.724;13.346;2023-03-26T14:35:23;4.20;;;2.33;;
51122;SDS011;37162;41.724;13.346;2023-03-26T14:38:05;5.07;;;2.47;;
51122;SDS011;37162;41.724;13.346;2023-03-26T14:54:19;3.95;;;2.33;;
51122;SDS011;37162;41.724;13.346;2023-03-26T15:02:29;4.63;;;2.00;;
51122;SDS011;37162;41.724;13.346;2023-03-26T15:05:27;6.53;;;2.22;;
51122;SDS011;37162;41.724;13.346;2023-03-26T15:30:25;3.78;;;1.98;;
51122;SDS011;37162;41.724;13.346;2023-03-26T15:41:00;4.75;;;2.30;;
51122;SDS011;37162;41.724;13.346;2023-03-26T15:51:56;2.50;;;1.83;;
51122;SDS011;37162;41.724;13.346;2023-03-26T15:54:28;4.60;;;1.90;;
51122;SDS011;37162;41.724;13.346;2023-03-26T16:02:36;5.30;;;1.75;;
51122;SDS011;37162;41.724;13.346;2023-03-26T16:11:10;6.45;;;1.90;;
51122;SDS011;37162;41.724;13.346;2023-03-26T16:19:26;3.67;;;1.95;;
51122;SDS011;37162;41.724;13.346;2023-03-26T16:24:32;2.53;;;1.77;;
51122;SDS011;37162;41.724;13.346;2023-03-26T16:30:01;3.28;;;1.60;;
51122;SDS011;37162;41.724;13.346;2023-03-26T16:32:34;3.83;;;1.98;;
51122;SDS011;37162;41.724;13.346;2023-03-26T16:35:01;3.50;;;1.83;;
51122;SDS011;37162;41.724;13.346;2023-03-26T16:37:40;5.25;;;2.17;;
51122;SDS011;37162;41.724;13.346;2023-03-26T16:48:28;7.30;;;2.20;;
51122;SDS011;37162;41.724;13.346;2023-03-26T16:51:21;5.85;;;2.22;;
51122;SDS011;37162;41.724;13.346;2023-03-26T16:53:52;8.80;;;2.50;;
51122;SDS011;37162;41.724;13.346;2023-03-26T17:01:46;4.57;;;2.20;;
51122;SDS011;37162;41.724;13.346;2023-03-26T17:04:22;4.40;;;2.00;;
51122;SDS011;37162;41.724;13.346;2023-03-26T17:30:39;7.15;;;2.55;;
51122;SDS011;37162;41.724;13.346;2023-03-26T17:41:05;5.38;;;2.63;;
51122;SDS011;37162;41.724;13.346;2023-03-26T17:43:33;8.65;;;3.22;;
51122;SDS011;37162;41.724;13.346;2023-03-26T17:46:02;7.75;;;3.15;;
51122;SDS011;37162;41.724;13.346;2023-03-26T17:48:36;6.18;;;3.20;;
51122;SDS011;37162;41.724;13.346;2023-03-26T17:53:38;6.25;;;2.60;;
51122;SDS011;37162;41.724;13.346;2023-03-26T17:56:11;5.70;;;2.67;;
51122;SDS011;37162;41.724;13.346;2023-03-26T17:58:43;7.07;;;2.53;;
51122;SDS011;37162;41.724;13.346;2023-03-26T18:03:54;8.50;;;3.15;;
51122;SDS011;37162;41.724;13.346;2023-03-26T18:17:19;6.03;;;2.72;;
51122;SDS011;37162;41.724;13.346;2023-03-26T18:19:46;7.43;;;2.95;;
51122;SDS011;37162;41.724;13.346;2023-03-26T18:22:18;6.78;;;2.85;;
51122;SDS011;37162;41.724;13.346;2023-03-26T18:24:49;7.20;;;2.72;;
51122;SDS011;37162;41.724;13.346;2023-03-26T18:27:16;8.05;;;2.80;;
51122;SDS011;37162;41.724;13.346;2023-03-26T18:29:45;9.13;;;2.88;;
51122;SDS011;37162;41.724;13.346;2023-03-26T18:32:27;5.00;;;2.75;;
51122;SDS011;37162;41.724;13.346;2023-03-26T18:35:17;5.20;;;2.90;;
51122;SDS011;37162;41.724;13.346;2023-03-26T18:37:45;6.47;;;2.53;;
51122;SDS011;37162;41.724;13.346;2023-03-26T18:40:17;6.50;;;3.35;;
51122;SDS011;37162;41.724;13.346;2023-03-26T18:42:54;4.20;;;2.75;;
51122;SDS011;37162;41.724;13.346;2023-03-26T18:45:30;7.78;;;2.72;;
51122;SDS011;37162;41.724;13.346;2023-03-26T18:48:02;5.00;;;2.38;;
51122;SDS011;37162;41.724;13.346;2023-03-26T18:50:34;5.25;;;2.60;;
51122;SDS011;37162;41.724;13.346;2023-03-26T18:53:16;5.97;;;2.35;;
51122;SDS011;37162;41.724;13.346;2023-03-26T18:55:45;5.28;;;3.10;;
51122;SDS011;37162;41.724;13.346;2023-03-26T19:00:50;5.18;;;2.63;;
51122;SDS011;37162;41.724;13.346;2023-03-26T19:03:21;3.90;;;2.45;;
51122;SDS011;37162;41.724;13.346;2023-03-26T19:05:49;5.72;;;2.60;;
51122;SDS011;37162;41.724;13.346;2023-03-26T19:08:16;4.22;;;2.47;;
51122;SDS011;37162;41.724;13.346;2023-03-26T19:10:42;4.05;;;2.42;;
51122;SDS011;37162;41.724;13.346;2023-03-26T19:13:12;3.25;;;2.15;;
51122;SDS011;37162;41.724;13.346;2023-03-26T19:15:39;4.72;;;2.33;;
51122;SDS011;37162;41.724;13.346;2023-03-26T19:18:07;4.05;;;2.22;;
51122;SDS011;37162;41.724;13.346;2023-03-26T19:23:03;4.78;;;2.20;;
51122;SDS011;37162;41.724;13.346;2023-03-26T19:25:35;8.55;;;2.65;;
51122;SDS011;37162;41.724;13.346;2023-03-26T19:28:09;4.65;;;2.13;;
51122;SDS011;37162;41.724;13.346;2023-03-26T19:30:41;3.55;;;2.28;;
51122;SDS011;37162;41.724;13.346;2023-03-26T19:33:14;4.30;;;1.92;;
51122;SDS011;37162;41.724;13.346;2023-03-26T19:35:43;4.43;;;2.38;;
51122;SDS011;37162;41.724;13.346;2023-03-26T19:40:44;3.75;;;2.15;;
51122;SDS011;37162;41.724;13.346;2023-03-26T19:43:11;4.93;;;1.88;;
51122;SDS011;37162;41.724;13.346;2023-03-26T19:45:52;3.25;;;2.10;;
51122;SDS011;37162;41.724;13.346;2023-03-26T19:48:19;3.00;;;2.30;;
51122;SDS011;37162;41.724;13.346;2023-03-26T19:50:57;3.20;;;1.80;;
51122;SDS011;37162;41.724;13.346;2023-03-26T19:53:30;2.97;;;1.67;;
51122;SDS011;37162;41.724;13.346;2023-03-26T19:56:10;5.20;;;1.90;;
51122;SDS011;37162;41.724;13.346;2023-03-26T19:58:39;3.83;;;2.00;;
51122;SDS011;37162;41.724;13.346;2023-03-26T20:01:08;5.40;;;2.10;;
51122;SDS011;37162;41.724;13.346;2023-03-26T20:03:40;2.25;;;1.67;;
51122;SDS011;37162;41.724;13.346;2023-03-26T20:06:13;2.47;;;1.73;;
51122;SDS011;37162;41.724;13.346;2023-03-26T20:08:41;2.38;;;1.67;;
51122;SDS011;37162;41.724;13.346;2023-03-26T20:11:13;2.08;;;1.73;;
51122;SDS011;37162;41.724;13.346;2023-03-26T20:13:42;3.90;;;2.67;;
51122;SDS011;37162;41.724;13.346;2023-03-26T20:18:39;4.15;;;2.00;;
51122;SDS011;37162;41.724;13.346;2023-03-26T20:21:08;2.50;;;1.60;;
51122;SDS011;37162;41.724;13.346;2023-03-26T20:23:37;4.15;;;2.20;;
51122;SDS011;37162;41.724;13.346;2023-03-26T20:26:03;3.28;;;1.85;;
51122;SDS011;37162;41.724;13.346;2023-03-26T20:28:29;4.25;;;2.15;;
51122;SDS011;37162;41.724;13.346;2023-03-26T20:30:55;3.08;;;1.83;;
51122;SDS011;37162;41.724;13.346;2023-03-26T20:33:21;3.45;;;2.15;;
51122;SDS011;37162;41.724;13.346;2023-03-26T20:35:52;5.75;;;2.05;;
51122;SDS011;37162;41.724;13.346;2023-03-26T20:38:18;3.33;;;2.08;;
51122;SDS011;37162;41.724;13.346;2023-03-26T20:40:44;5.22;;;2.60;;
51122;SDS011;37162;41.724;13.346;2023-03-26T20:43:11;3.33;;;1.50;;
51122;SDS011;37162;41.724;13.346;2023-03-26T20:45:39;2.67;;;1.80;;
51122;SDS011;37162;41.724;13.346;2023-03-26T20:48:05;3.78;;;2.03;;
51122;SDS011;37162;41.724;13.346;2023-03-26T20:50:31;4.70;;;2.42;;
51122;SDS011;37162;41.724;13.346;2023-03-26T20:52:57;2.58;;;1.90;;
51122;SDS011;37162;41.724;13.346;2023-03-26T20:55:24;4.32;;;2.47;;
51122;SDS011;37162;41.724;13.346;2023-03-26T20:57:52;4.38;;;2.50;;
51122;SDS011;37162;41.724;13.346;2023-03-26T21:00:19;3.55;;;2.03;;
51122;SDS011;37162;41.724;13.346;2023-03-26T21:02:57;3.65;;;2.20;;
51122;SDS011;37162;41.724;13.346;2023-03-26T21:05:25;3.22;;;2.03;;
51122;SDS011;37162;41.724;13.346;2023-03-26T21:07:53;4.65;;;2.47;;
51122;SDS011;37162;41.724;13.346;2023-03-26T21:10:23;5.88;;;2.92;;
51122;SDS011;37162;41.724;13.346;2023-03-26T21:12:57;2.90;;;2.15;;
51122;SDS011;37162;41.724;13.346;2023-03-26T21:15:28;4.60;;;2.20;;
51122;SDS011;37162;41.724;13.346;2023-03-26T21:17:54;6.10;;;3.20;;
51122;SDS011;37162;41.724;13.346;2023-03-26T21:20:20;3.83;;;2.53;;
51122;SDS011;37162;41.724;13.346;2023-03-26T21:22:52;3.75;;;2.30;;
51122;SDS011;37162;41.724;13.346;2023-03-26T21:30:54;4.07;;;2.20;;
51122;SDS011;37162;41.724;13.346;2023-03-26T21:33:20;3.50;;;2.17;;
51122;SDS011;37162;41.724;13.346;2023-03-26T21:35:46;3.85;;;2.25;;
51122;SDS011;37162;41.724;13.346;2023-03-26T21:38:17;3.80;;;2.20;;
51122;SDS011;37162;41.724;13.346;2023-03-26T21:40:49;3.15;;;1.98;;
51122;SDS011;37162;41.724;13.346;2023-03-26T21:43:17;6.15;;;2.50;;
51122;SDS011;37162;41.724;13.346;2023-03-26T21:45:44;3.70;;;2.50;;
51122;SDS011;37162;41.724;13.346;2023-03-26T21:48:12;4.00;;;1.95;;
51122;SDS011;37162;41.724;13.346;2023-03-26T21:50:38;5.55;;;2.30;;
51122;SDS011;37162;41.724;13.346;2023-03-26T21:53:04;5.78;;;2.30;;
51122;SDS011;37162;41.724;13.346;2023-03-26T21:55:31;3.78;;;2.25;;
51122;SDS011;37162;41.724;13.346;2023-03-26T21:58:27;2.63;;;1.90;;
51122;SDS011;37162;41.724;13.346;2023-03-26T22:01:16;3.75;;;2.20;;